Time;durP1;ratioP1;P1;durP2;ratioP2;P2;SDS_P1;SDS_P2;PMS_P1;PMS_P2;Temp;Humidity;BMP_temperature;BMP_pressure;BME280_temperature;BME280_humidity;BME280_pressure;Samples;Min_cycle;Max_cycle;Signal;HPM_P1;HPM_P2
2022/09/14 00:02:51;;;;;;;3.90;3.00;;;;;;;15.09;81.99;98996.81;105535;1281;97851;-71
2022/09/14 00:05:23;;;;;;;4.70;3.10;;;;;;;15.09;82.07;98997.15;105491;1281;97845;-72
2022/09/14 00:07:55;;;;;;;3.20;3.00;;;;;;;15.09;82.09;99000.64;105437;1279;138582;-71
2022/09/14 00:10:27;;;;;;;3.20;2.80;;;;;;;15.08;81.86;99004.40;105637;1279;109011;-71
2022/09/14 00:13:00;;;;;;;3.50;3.20;;;;;;;15.05;81.72;99008.80;105482;1279;138345;-72
2022/09/14 00:15:31;;;;;;;3.90;3.60;;;;;;;15.02;81.58;99007.20;105371;1282;98363;-72
2022/09/14 00:18:04;;;;;;;5.30;3.70;;;;;;;15.00;81.72;99005.95;105396;1281;138560;-72
2022/09/14 00:20:36;;;;;;;4.30;3.30;;;;;;;14.98;81.66;99005.80;105494;1281;112850;-72
2022/09/14 00:23:08;;;;;;;5.20;3.70;;;;;;;14.94;81.60;99007.63;105506;1281;108881;-72
2022/09/14 00:25:40;;;;;;;4.90;4.20;;;;;;;14.91;81.56;99004.70;105515;1280;138421;-72
2022/09/14 00:28:12;;;;;;;4.90;4.20;;;;;;;14.87;81.46;99004.42;105508;1281;98744;-73
2022/09/14 00:30:44;;;;;;;7.40;5.10;;;;;;;14.83;81.43;98997.91;105411;1280;138247;-72
2022/09/14 00:33:16;;;;;;;6.70;4.40;;;;;;;14.77;81.38;98994.86;105478;1280;112621;-72
2022/09/14 00:35:48;;;;;;;5.40;4.00;;;;;;;14.72;81.27;98992.73;105446;1279;138689;-71
2022/09/14 00:38:19;;;;;;;4.60;3.90;;;;;;;14.67;81.14;98994.98;105531;1280;108397;-73
2022/09/14 00:40:59;;;;;;;4.10;3.70;;;;;;;14.62;81.03;98993.78;105520;1281;97824;-72
2022/09/14 00:43:31;;;;;;;4.70;4.00;;;;;;;14.56;81.10;98996.83;105456;1279;138481;-73
2022/09/14 00:46:03;;;;;;;5.30;4.00;;;;;;;14.50;80.98;98999.80;105628;1281;111700;-73
2022/09/14 00:48:35;;;;;;;8.30;4.60;;;;;;;14.45;80.84;99001.39;105451;1281;138596;-73
2022/09/14 00:51:07;;;;;;;6.40;4.40;;;;;;;14.38;80.80;99000.94;105565;1280;107971;-72
2022/09/14 00:53:39;;;;;;;5.60;4.30;;;;;;;14.33;80.83;99001.84;105553;1281;97862;-72
2022/09/14 00:56:11;;;;;;;5.70;4.70;;;;;;;14.29;80.95;99000.19;105512;1281;139969;-72
2022/09/14 00:58:45;;;;;;;5.00;4.50;;;;;;;14.24;80.98;99004.70;105572;1279;111514;-72
2022/09/14 01:01:17;;;;;;;6.00;4.90;;;;;;;14.20;81.04;99015.67;105449;1281;138611;-72
2022/09/14 01:03:50;;;;;;;5.80;4.80;;;;;;;14.17;81.20;99014.96;105628;1279;108990;-72
2022/09/14 01:06:34;;;;;;;5.80;5.20;;;;;;;14.14;81.36;99013.73;105525;1279;138713;-71
2022/09/14 01:09:18;;;;;;;5.80;4.90;;;;;;;14.13;81.56;99014.17;105617;1279;97847;-71
2022/09/14 01:12:13;;;;;;;5.90;5.30;;;;;;;14.12;81.89;99008.30;105468;1281;140265;-72
2022/09/14 01:14:55;;;;;;;5.80;5.20;;;;;;;14.12;81.96;99005.53;105565;1279;108858;-71
2022/09/14 01:17:34;;;;;;;5.80;5.30;;;;;;;14.11;82.07;98998.80;105522;1281;106819;-71
2022/09/14 01:20:19;;;;;;;6.20;5.40;;;;;;;14.10;82.18;99001.64;105455;1280;138396;-71
2022/09/14 01:23:02;;;;;;;6.40;5.80;;;;;;;14.09;82.33;99000.81;105588;1281;97911;-71
2022/09/14 01:25:55;;;;;;;7.30;6.60;;;;;;;14.09;82.44;98996.14;105502;1279;138241;-70
2022/09/14 01:28:32;;;;;;;10.30;6.60;;;;;;;14.07;82.49;98990.11;105605;1281;108987;-71
2022/09/14 01:31:09;;;;;;;7.20;6.50;;;;;;;14.08;82.63;98993.73;105397;1281;138608;-71
2022/09/14 01:33:47;;;;;;;7.80;6.60;;;;;;;14.07;82.83;98989.05;105586;1281;98598;-72
2022/09/14 01:36:21;;;;;;;8.10;6.80;;;;;;;14.07;83.01;98989.10;105505;1281;139567;-72
2022/09/14 01:38:55;;;;;;;9.90;7.70;;;;;;;14.07;83.16;98987.33;105558;1281;112501;-70
2022/09/14 01:41:30;;;;;;;8.00;7.20;;;;;;;14.07;83.32;98989.94;105589;1281;109040;-71
2022/09/14 01:44:07;;;;;;;8.60;7.70;;;;;;;14.08;83.39;98989.56;106832;1281;139354;-71
2022/09/14 01:46:44;;;;;;;8.30;7.50;;;;;;;14.08;83.61;98986.55;106995;1279;95905;-72
2022/09/14 01:49:17;;;;;;;;;;;;;;;14.10;83.81;98984.70;105873;1279;138400;-70
2022/09/14 01:51:51;;;;;;;8.80;7.90;;;;;;;14.09;83.95;98976.90;105626;1281;112449;-71
2022/09/14 01:54:29;;;;;;;9.50;8.30;;;;;;;14.10;84.03;98974.19;105504;1281;138642;-72
2022/09/14 01:57:08;;;;;;;10.00;9.00;;;;;;;14.12;84.26;98978.40;105577;1281;108910;-70
2022/09/14 01:59:44;;;;;;;11.00;9.50;;;;;;;14.15;84.41;98979.45;105572;1281;97856;-73
2022/09/14 02:02:20;;;;;;;13.80;11.60;;;;;;;14.16;84.57;98975.87;105358;1281;97927;-72
2022/09/14 02:04:58;;;;;;;16.90;14.20;;;;;;;14.18;84.77;98969.64;105602;1281;112931;-73
2022/09/14 02:07:31;;;;;;;15.60;12.90;;;;;;;14.20;84.90;98967.72;105472;1281;138742;-72
2022/09/14 02:10:05;;;;;;;14.80;13.30;;;;;;;14.23;84.98;98964.93;105485;1281;108881;-73
2022/09/14 02:12:37;;;;;;;15.80;14.10;;;;;;;14.26;85.16;98963.35;105405;1279;138705;-72
2022/09/14 02:15:12;;;;;;;17.60;15.60;;;;;;;14.27;85.27;98964.63;105550;1281;97895;-72
2022/09/14 02:17:45;;;;;;;17.90;15.80;;;;;;;14.29;85.20;98961.16;105904;1279;112787;-71
2022/09/14 02:20:22;;;;;;;17.20;15.30;;;;;;;14.31;85.26;98959.29;105500;1281;109130;-74
2022/09/14 02:22:54;;;;;;;20.10;17.10;;;;;;;14.33;85.37;98958.98;105421;1281;108267;-72
2022/09/14 02:25:27;;;;;;;19.70;17.50;;;;;;;14.34;85.38;98962.56;105383;1281;138762;-74
2022/09/14 02:27:58;;;;;;;20.70;18.20;;;;;;;14.36;85.41;98958.46;105536;1281;97879;-72
2022/09/14 02:30:38;;;;;;;20.00;17.90;;;;;;;14.38;85.53;98959.02;105488;1281;138782;-71
2022/09/14 02:33:16;;;;;;;23.70;18.10;;;;;;;14.39;85.61;98957.02;105353;1281;108949;-72
2022/09/14 02:35:52;;;;;;;20.00;17.80;;;;;;;14.40;85.42;98965.00;105345;1281;139499;-72
2022/09/14 02:38:34;;;;;;;22.60;20.20;;;;;;;14.41;85.52;98964.43;105420;1281;97872;-72
2022/09/14 02:41:12;;;;;;;25.00;20.20;;;;;;;14.42;85.46;98960.85;105396;1279;97923;-72
2022/09/14 02:43:50;;;;;;;23.80;21.20;;;;;;;14.42;85.51;98960.47;105258;1281;138549;-72
2022/09/14 02:46:33;;;;;;;27.10;23.10;;;;;;;14.42;85.52;98959.95;105379;1281;109332;-72
2022/09/14 02:49:11;;;;;;;28.40;24.00;;;;;;;14.42;85.41;98958.70;105476;1281;138635;-73
2022/09/14 02:51:52;;;;;;;27.60;23.40;;;;;;;14.42;85.53;98956.98;105582;1281;98054;-72
2022/09/14 02:54:30;;;;;;;29.50;24.50;;;;;;;14.43;85.53;98959.21;104408;1280;1432541;-74
2022/09/14 02:57:03;;;;;;;32.70;26.00;;;;;;;14.43;85.70;98962.34;105481;1281;111751;-74
2022/09/14 02:59:35;;;;;;;33.20;26.80;;;;;;;14.43;85.67;98962.18;105644;1281;108015;-72
2022/09/14 03:02:07;;;;;;;35.40;27.90;;;;;;;14.43;85.75;98960.44;105376;1281;138619;-73
2022/09/14 03:04:39;;;;;;;37.40;28.90;;;;;;;14.43;85.78;98960.27;105570;1281;97875;-72
2022/09/14 03:07:11;;;;;;;36.10;28.70;;;;;;;14.43;85.78;98961.10;105465;1281;138602;-72
2022/09/14 03:09:44;;;;;;;35.00;28.90;;;;;;;14.45;85.89;98958.23;105549;1281;112483;-72
2022/09/14 03:12:17;;;;;;;35.40;30.20;;;;;;;14.46;85.95;98959.55;105458;1281;138951;-72
2022/09/14 03:14:49;;;;;;;36.70;29.90;;;;;;;14.46;85.94;98962.52;105502;1281;108903;-73
2022/09/14 03:17:20;;;;;;;38.90;30.40;;;;;;;14.45;85.83;98963.06;105517;1281;98327;-72
2022/09/14 03:19:52;;;;;;;42.80;32.50;;;;;;;14.45;86.05;98966.08;105432;1281;138737;-73
2022/09/14 03:22:24;;;;;;;38.70;30.10;;;;;;;14.46;86.12;98959.01;105607;1281;111468;-73
2022/09/14 03:24:56;;;;;;;39.10;32.10;;;;;;;14.47;86.20;98955.94;105325;1280;138985;-72
2022/09/14 03:27:28;;;;;;;38.00;32.20;;;;;;;14.49;86.18;98958.60;105562;1281;108868;-72
2022/09/14 03:30:00;;;;;;;38.80;31.90;;;;;;;14.49;86.09;98957.36;105462;1279;139760;-72
2022/09/14 03:32:32;;;;;;;40.80;32.80;;;;;;;14.50;86.17;98954.00;105461;1281;97853;-73
2022/09/14 03:35:05;;;;;;;39.90;32.80;;;;;;;14.50;86.08;98952.11;105559;1281;112893;-73
2022/09/14 03:37:40;;;;;;;41.20;32.10;;;;;;;14.48;85.92;98949.74;105490;1279;139154;-73
2022/09/14 03:40:15;;;;;;;38.90;31.70;;;;;;;14.46;85.98;98943.77;105482;1279;107807;-73
2022/09/14 03:42:53;;;;;;;41.00;30.40;;;;;;;14.45;85.90;98937.41;106836;1279;139902;-74
2022/09/14 03:45:25;;;;;;;38.80;30.90;;;;;;;14.43;85.76;98931.23;106973;1280;96186;-73
2022/09/14 03:47:57;;;;;;;36.60;29.60;;;;;;;14.41;85.73;98933.80;105956;1279;138875;-73
2022/09/14 03:50:29;;;;;;;37.30;29.60;;;;;;;14.39;85.79;98942.67;105568;1279;108260;-73
2022/09/14 03:53:01;;;;;;;36.40;29.70;;;;;;;14.36;85.74;98940.76;105507;1279;108292;-73
2022/09/14 03:55:33;;;;;;;33.20;28.30;;;;;;;14.34;85.77;98943.89;105344;1281;138865;-73
2022/09/14 03:58:05;;;;;;;34.50;28.60;;;;;;;14.32;85.82;98943.32;105570;1281;97821;-72
2022/09/14 04:00:36;;;;;;;33.10;28.70;;;;;;;14.31;85.77;98946.91;105540;1279;138548;-72
2022/09/14 04:03:08;;;;;;;34.30;28.50;;;;;;;14.29;85.68;98943.00;105478;1281;107920;-73
2022/09/14 04:05:40;;;;;;;37.30;27.70;;;;;;;14.27;85.64;98942.83;105449;1281;107940;-73
2022/09/14 04:08:12;;;;;;;36.90;29.30;;;;;;;14.25;85.74;98944.16;106860;1281;97292;-73
2022/09/14 04:10:44;;;;;;;35.80;29.50;;;;;;;14.23;85.85;98948.50;105971;1281;97844;-73
2022/09/14 04:13:16;;;;;;;42.50;30.40;;;;;;;14.23;85.84;98946.45;105468;1279;139972;-73
2022/09/14 04:16:00;;;;;;;38.20;30.10;;;;;;;14.21;86.00;98943.72;105603;1281;108973;-73
2022/09/14 04:18:32;;;;;;;40.70;31.20;;;;;;;14.20;85.93;98941.55;105436;1281;140558;-73
2022/09/14 04:21:08;;;;;;;38.20;31.40;;;;;;;14.17;86.04;98944.48;105524;1280;97939;-73
2022/09/14 04:23:40;;;;;;;40.30;29.20;;;;;;;14.16;86.04;98942.28;105611;1280;97857;-72
2022/09/14 04:26:32;;;;;;;36.10;28.40;;;;;;;14.17;86.14;98942.41;105562;1279;112636;-72
2022/09/14 04:29:05;;;;;;;35.30;28.90;;;;;;;14.18;86.13;98936.07;105544;1280;108938;-73
2022/09/14 04:31:37;;;;;;;37.20;28.50;;;;;;;14.18;85.99;98935.70;105458;1279;139125;-73
2022/09/14 04:34:10;;;;;;;34.70;27.30;;;;;;;14.20;85.92;98934.18;105583;1279;97876;-71
2022/09/14 04:36:42;;;;;;;33.80;26.80;;;;;;;14.23;85.92;98930.86;105405;1281;138778;-73
2022/09/14 04:39:14;;;;;;;35.20;25.50;;;;;;;14.27;85.81;98931.77;105425;1281;112333;-71
2022/09/14 04:41:46;;;;;;;35.00;25.90;;;;;;;14.36;85.82;98932.23;105543;1281;108380;-72
2022/09/14 04:44:18;;;;;;;29.90;24.80;;;;;;;14.46;85.76;98928.90;105500;1280;108942;-74
2022/09/14 04:46:50;;;;;;;30.40;24.10;;;;;;;14.57;85.46;98929.79;105486;1281;97878;-72
2022/09/14 04:49:22;;;;;;;30.70;23.40;;;;;;;14.64;85.24;98935.02;105413;1281;138533;-72
2022/09/14 04:51:53;;;;;;;27.90;23.00;;;;;;;14.69;85.03;98930.66;105531;1279;112588;-75
2022/09/14 04:54:25;;;;;;;29.30;23.20;;;;;;;14.71;84.67;98928.39;105292;1281;139064;-71
2022/09/14 04:56:58;;;;;;;28.20;22.50;;;;;;;14.71;84.51;98927.90;105514;1279;108942;-71
2022/09/14 04:59:29;;;;;;;29.00;22.60;;;;;;;14.71;84.43;98932.63;105557;1279;98126;-72
2022/09/14 05:02:01;;;;;;;28.10;21.90;;;;;;;14.74;84.39;98931.89;105323;1279;138673;-71
2022/09/14 05:04:34;;;;;;;24.90;21.70;;;;;;;14.78;84.32;98934.77;105471;1281;111537;-72
2022/09/14 05:07:06;;;;;;;27.00;21.90;;;;;;;14.79;84.20;98932.20;105455;1279;139972;-70
2022/09/14 05:09:38;;;;;;;29.90;22.50;;;;;;;14.81;84.19;98935.59;105598;1279;108476;-71
2022/09/14 05:12:10;;;;;;;30.90;22.30;;;;;;;14.82;84.00;98936.23;105479;1281;140458;-71
2022/09/14 05:14:42;;;;;;;25.30;21.70;;;;;;;14.82;84.07;98930.77;105623;1279;97846;-70
2022/09/14 05:17:14;;;;;;;27.40;23.20;;;;;;;14.82;84.15;98938.11;105579;1281;112662;-70
2022/09/14 05:19:46;;;;;;;28.20;23.10;;;;;;;14.86;84.21;98934.69;105425;1279;138758;-70
2022/09/14 05:22:19;;;;;;;29.70;21.90;;;;;;;14.95;84.32;98936.19;105648;1279;109055;-69
2022/09/14 05:24:51;;;;;;;28.30;23.10;;;;;;;15.04;83.95;98932.36;105334;1281;140567;-70
2022/09/14 05:27:23;;;;;;;28.50;22.70;;;;;;;15.05;83.98;98931.72;105472;1281;97723;-73
2022/09/14 05:29:55;;;;;;;26.40;22.20;;;;;;;15.23;84.38;98933.15;105467;1281;139714;-71
2022/09/14 05:32:27;;;;;;;23.90;20.80;;;;;;;15.63;84.06;98930.87;105662;1279;108912;-71
2022/09/14 05:34:59;;;;;;;27.80;21.10;;;;;;;15.75;83.16;98920.91;105558;1281;108885;-71
2022/09/14 05:37:31;;;;;;;25.20;21.60;;;;;;;15.80;82.87;98919.48;105400;1279;140576;-70
2022/09/14 05:40:04;;;;;;;28.90;22.50;;;;;;;15.95;82.54;98923.27;105688;1281;97927;-71
2022/09/14 05:42:36;;;;;;;24.10;21.20;;;;;;;15.99;82.30;98930.64;105434;1281;138992;-71
2022/09/14 05:45:10;;;;;;;24.50;21.60;;;;;;;16.02;82.40;98931.89;105471;1281;108992;-71
2022/09/14 05:47:42;;;;;;;27.20;20.90;;;;;;;16.00;82.18;98932.32;105591;1280;109064;-70
2022/09/14 05:50:14;;;;;;;27.40;21.80;;;;;;;15.99;82.04;98932.07;105532;1281;97880;-71
2022/09/14 05:52:47;;;;;;;28.20;22.30;;;;;;;15.95;81.99;98934.29;105491;1281;98319;-70
2022/09/14 05:55:20;;;;;;;27.90;23.50;;;;;;;15.87;81.94;98930.00;105405;1281;139879;-72
2022/09/14 05:57:52;;;;;;;33.60;25.20;;;;;;;15.79;82.00;98927.66;105984;1281;110545;-71
2022/09/14 06:00:25;;;;;;;32.90;25.60;;;;;;;15.72;82.24;98923.77;105135;1281;140635;-70
2022/09/14 06:02:57;;;;;;;37.70;27.50;;;;;;;15.67;82.39;98926.08;105472;1281;98041;-75
2022/09/14 06:05:30;;;;;;;39.00;28.90;;;;;;;15.62;82.62;98925.16;105601;1280;97857;-72
2022/09/14 06:08:04;;;;;;;37.70;29.10;;;;;;;15.56;82.63;98924.02;105416;1281;138922;-72
2022/09/14 06:10:35;;;;;;;40.40;31.80;;;;;;;15.51;82.68;98924.41;105509;1281;108608;-71
2022/09/14 06:13:07;;;;;;;38.30;30.40;;;;;;;15.46;82.90;98926.72;105405;1281;140119;-75
2022/09/14 06:15:39;;;;;;;40.20;31.00;;;;;;;15.43;82.94;98927.77;105539;1281;97838;-74
2022/09/14 06:18:11;;;;;;;38.90;30.00;;;;;;;15.38;82.92;98931.32;105415;1281;138774;-76
2022/09/14 06:20:51;;;;;;;39.20;31.60;;;;;;;15.33;82.94;98933.79;105523;1281;112613;-73
2022/09/14 06:23:23;;;;;;;38.10;30.00;;;;;;;15.30;83.14;98938.58;105526;1281;108072;-73
2022/09/14 06:25:57;;;;;;;40.80;30.90;;;;;;;15.28;83.22;98940.64;105495;1281;138987;-71
2022/09/14 06:28:29;;;;;;;40.20;30.00;;;;;;;15.26;83.33;98944.29;105545;1281;98505;-71
2022/09/14 06:31:03;;;;;;;36.40;29.50;;;;;;;15.25;83.41;98940.81;105318;1281;138578;-71
2022/09/14 06:33:35;;;;;;;38.30;29.40;;;;;;;15.25;83.44;98943.45;105664;1281;112710;-71
2022/09/14 06:36:11;;;;;;;39.30;29.10;;;;;;;15.25;83.38;98945.58;105389;1281;139753;-72
2022/09/14 06:38:44;;;;;;;37.60;29.20;;;;;;;15.24;83.15;98947.17;105466;1281;108793;-71
2022/09/14 06:41:20;;;;;;;35.30;29.40;;;;;;;15.25;83.13;98946.83;105526;1281;98389;-70
2022/09/14 06:43:54;;;;;;;38.40;28.50;;;;;;;15.23;83.04;98949.88;105473;1281;138618;-72
2022/09/14 06:46:28;;;;;;;36.60;27.60;;;;;;;15.23;83.22;98949.59;105586;1281;111890;-72
2022/09/14 06:49:03;;;;;;;32.80;26.50;;;;;;;15.24;83.33;98954.08;105366;1281;138762;-72
2022/09/14 06:51:37;;;;;;;31.90;25.50;;;;;;;15.23;83.02;98958.19;105444;1281;109049;-72
2022/09/14 06:54:10;;;;;;;32.50;25.60;;;;;;;15.20;82.84;98958.55;105393;1281;138888;-72
2022/09/14 06:56:44;;;;;;;31.00;25.30;;;;;;;15.18;82.92;98956.59;105539;1281;98248;-72
2022/09/14 06:59:18;;;;;;;30.50;24.80;;;;;;;15.19;82.87;98965.98;105413;1281;111411;-72
2022/09/14 07:01:49;;;;;;;32.00;24.50;;;;;;;15.19;82.93;98966.48;105359;1281;138895;-73
2022/09/14 07:04:22;;;;;;;30.80;24.70;;;;;;;15.19;82.92;98967.01;105379;1281;108440;-72
2022/09/14 07:06:54;;;;;;;33.80;26.40;;;;;;;15.20;83.00;98967.28;105352;1280;138727;-72
2022/09/14 07:09:26;;;;;;;31.40;25.20;;;;;;;15.25;83.15;98963.80;105506;1281;97872;-72
2022/09/14 07:11:58;;;;;;;34.40;26.70;;;;;;;15.31;83.15;98967.04;105322;1281;139414;-73
2022/09/14 07:14:30;;;;;;;33.20;25.80;;;;;;;15.39;83.15;98971.55;105644;1281;110651;-72
2022/09/14 07:17:03;;;;;;;32.80;25.70;;;;;;;15.60;83.33;98974.58;105658;1281;109608;-72
2022/09/14 07:19:35;;;;;;;30.20;23.40;;;;;;;16.25;83.89;98971.80;105494;1279;140693;-73
2022/09/14 07:22:07;;;;;;;33.00;21.90;;;;;;;17.42;82.42;98969.17;105627;1280;97712;-72
2022/09/14 07:24:39;;;;;;;26.20;21.20;;;;;;;18.14;80.37;98977.07;105604;1281;138573;-73
2022/09/14 07:27:11;;;;;;;25.90;21.20;;;;;;;18.53;78.43;98971.60;105581;1281;108874;-72
2022/09/14 07:29:43;;;;;;;25.00;20.20;;;;;;;18.79;76.79;98974.10;105519;1281;108831;-72
2022/09/14 07:32:15;;;;;;;22.50;19.50;;;;;;;19.07;75.23;98974.34;105198;1281;98178;-73
2022/09/14 07:34:47;;;;;;;21.70;18.10;;;;;;;18.98;74.59;98976.73;105223;1279;97932;-74
2022/09/14 07:37:19;;;;;;;19.00;16.70;;;;;;;19.15;74.44;98977.67;105458;1281;138919;-72
2022/09/14 07:39:51;;;;;;;23.40;16.60;;;;;;;19.96;73.18;98972.77;105305;1281;140057;-72
2022/09/14 07:42:22;;;;;;;17.90;14.70;;;;;;;20.82;71.96;98969.58;105541;1279;107875;-73
2022/09/14 07:44:54;;;;;;;19.90;13.20;;;;;;;21.40;70.27;98967.73;105449;1281;138818;-72
2022/09/14 07:47:26;;;;;;;16.90;12.60;;;;;;;21.37;67.98;98962.70;105603;1281;97838;-71
2022/09/14 07:49:58;;;;;;;13.80;11.50;;;;;;;21.50;67.46;98967.88;105444;1281;139957;-71
2022/09/14 07:52:30;;;;;;;15.70;11.60;;;;;;;21.94;66.37;98958.81;105586;1281;107912;-71
2022/09/14 07:55:12;;;;;;;17.00;11.80;;;;;;;21.95;64.93;98959.27;105408;1281;108953;-69
2022/09/14 07:57:45;;;;;;;14.10;10.40;;;;;;;21.95;64.38;98958.84;105746;1281;139380;-71
2022/09/14 08:00:27;;;;;;;16.40;10.90;;;;;;;22.13;63.98;98960.66;105629;1281;97860;-72
2022/09/14 08:02:59;;;;;;;15.40;10.50;;;;;;;22.27;63.61;98963.43;105460;1281;140106;-72
2022/09/14 08:05:31;;;;;;;14.40;9.70;;;;;;;22.58;62.00;98965.23;105563;1281;107637;-71
2022/09/14 08:08:03;;;;;;;12.00;9.70;;;;;;;22.50;61.42;98967.48;105406;1281;138511;-72
2022/09/14 08:10:36;;;;;;;13.40;10.20;;;;;;;22.52;61.46;98974.23;105664;1281;97974;-71
2022/09/14 08:13:08;;;;;;;11.50;8.00;;;;;;;22.65;60.68;98971.69;105409;1281;97854;-71
2022/09/14 08:15:40;;;;;;;13.40;8.00;;;;;;;22.66;59.98;98974.76;105311;1281;138291;-72
2022/09/14 08:18:12;;;;;;;12.20;7.80;;;;;;;23.14;60.03;98966.77;105552;1281;107947;-72
2022/09/14 08:20:45;;;;;;;11.10;6.80;;;;;;;23.81;58.53;98961.27;105358;1279;138185;-72
2022/09/14 08:23:17;;;;;;;13.30;6.70;;;;;;;23.85;57.21;98962.73;105459;1281;97884;-73
2022/09/14 08:25:49;;;;;;;10.60;7.60;;;;;;;23.93;56.70;98965.60;105415;1281;137943;-72
2022/09/14 08:28:21;;;;;;;10.90;6.90;;;;;;;24.41;56.62;98966.40;105503;1281;112554;-72
2022/09/14 08:30:53;;;;;;;11.80;7.30;;;;;;;24.52;55.52;98966.64;105642;1281;108861;-73
2022/09/14 08:33:25;;;;;;;14.80;8.00;;;;;;;24.72;55.33;98964.83;105373;1281;139580;-71
2022/09/14 08:35:57;;;;;;;10.60;6.90;;;;;;;25.14;54.82;98967.02;105495;1281;97857;-71
2022/09/14 08:38:29;;;;;;;11.60;6.70;;;;;;;25.76;54.41;98965.27;105515;1281;137928;-72
2022/09/14 08:41:19;;;;;;;13.50;7.10;;;;;;;26.40;53.57;98965.07;105523;1281;112564;-71
2022/09/14 08:43:52;;;;;;;9.80;6.40;;;;;;;26.65;51.69;98955.52;105352;1281;138562;-74
2022/09/14 08:46:31;;;;;;;10.00;7.10;;;;;;;26.67;50.74;98959.15;105460;1281;108344;-72
2022/09/14 08:49:09;;;;;;;11.10;7.20;;;;;;;26.27;50.66;98955.52;105466;1279;97672;-72
2022/09/14 08:51:41;;;;;;;11.00;7.20;;;;;;;25.86;50.57;98951.32;106960;1281;137962;-73
2022/09/14 08:54:13;;;;;;;10.80;7.00;;;;;;;25.67;50.92;98948.36;106955;1279;112282;-73
2022/09/14 08:56:50;;;;;;;13.70;7.20;;;;;;;25.52;50.96;98949.19;106955;1279;138224;-73
2022/09/14 08:59:39;;;;;;;9.50;6.70;;;;;;;25.79;50.93;98942.68;105997;1281;108588;-74
2022/09/14 09:02:36;;;;;;;10.70;6.40;;;;;;;25.89;50.83;98945.21;105418;1281;139547;-71
2022/09/14 09:05:25;;;;;;;10.30;6.80;;;;;;;26.26;51.05;98949.42;105488;1281;97831;-72
2022/09/14 09:08:02;;;;;;;11.30;6.30;;;;;;;26.86;50.25;98943.14;105484;1281;137850;-71
2022/09/14 09:10:37;;;;;;;9.00;6.70;;;;;;;26.96;48.57;98941.59;105459;1281;107838;-71
2022/09/14 09:13:15;;;;;;;10.00;5.90;;;;;;;26.87;48.20;98940.39;105457;1281;108941;-70
2022/09/14 09:15:49;;;;;;;14.20;5.80;;;;;;;26.86;47.21;98937.21;105475;1281;138007;-71
2022/09/14 09:18:36;;;;;;;15.20;6.50;;;;;;;26.28;46.88;98943.49;105568;1279;97861;-70
2022/09/14 09:21:15;;;;;;;11.50;6.20;;;;;;;25.65;47.22;98940.85;105401;1281;137805;-70
2022/09/14 09:23:48;;;;;;;10.60;6.30;;;;;;;25.16;48.02;98943.26;105464;1281;109201;-72
2022/09/14 09:26:27;;;;;;;13.50;6.00;;;;;;;25.15;49.20;98937.73;105283;1281;138166;-70
2022/09/14 09:29:02;;;;;;;11.20;5.90;;;;;;;25.57;49.28;98937.89;105528;1281;97836;-69
2022/09/14 09:31:57;;;;;;;8.60;5.60;;;;;;;26.04;48.50;98938.29;105354;1281;137826;-72
2022/09/14 09:34:48;;;;;;;7.30;4.80;;;;;;;25.89;47.75;98937.52;105530;1279;112533;-71
2022/09/14 09:37:40;;;;;;;8.10;5.40;;;;;;;25.26;47.01;98935.89;105633;1279;108386;-70
2022/09/14 09:40:23;;;;;;;9.90;5.50;;;;;;;24.73;47.44;98936.63;105577;1279;109101;-72
2022/09/14 09:43:12;;;;;;;8.30;5.00;;;;;;;24.25;47.96;98940.34;107119;1279;96309;-70
2022/09/14 09:46:01;;;;;;;8.50;4.80;;;;;;;24.36;48.76;98943.04;106992;1279;137342;-71
2022/09/14 09:48:43;;;;;;;7.10;4.70;;;;;;;24.48;48.19;98941.86;106983;1280;111461;-69
2022/09/14 09:51:25;;;;;;;15.50;5.80;;;;;;;24.36;48.49;98945.14;106893;1281;137811;-71
2022/09/14 09:54:03;;;;;;;7.50;5.00;;;;;;;24.13;48.39;98939.46;106566;1279;108978;-69
2022/09/14 09:56:38;;;;;;;11.30;5.70;;;;;;;23.87;48.16;98947.42;105333;1279;138763;-71
2022/09/14 09:59:29;;;;;;;11.70;5.70;;;;;;;23.46;48.38;98944.21;105494;1280;97880;-70
2022/09/14 10:02:20;;;;;;;10.60;5.90;;;;;;;23.27;48.92;98945.12;105296;1281;138020;-70
2022/09/14 10:05:00;;;;;;;9.60;6.10;;;;;;;23.68;49.59;98945.98;105481;1281;109397;-70
2022/09/14 10:07:35;;;;;;;10.70;7.70;;;;;;;23.89;49.48;98948.66;105490;1281;107940;-70
2022/09/14 10:10:10;;;;;;;9.80;5.90;;;;;;;23.87;49.84;98945.67;105456;1279;137907;-69
2022/09/14 10:12:48;;;;;;;11.30;5.40;;;;;;;23.74;49.54;98942.29;105487;1281;97875;-69
2022/09/14 10:15:25;;;;;;;11.30;5.50;;;;;;;23.51;49.81;98945.09;105372;1281;138227;-70
2022/09/14 10:18:04;;;;;;;10.30;5.80;;;;;;;23.36;49.81;98945.98;107041;1279;108157;-70
2022/09/14 10:20:37;;;;;;;8.80;5.70;;;;;;;23.33;49.67;98946.48;106971;1279;138117;-70
2022/09/14 10:23:25;;;;;;;9.00;5.40;;;;;;;23.51;50.62;98946.71;106979;1281;96182;-70
2022/09/14 10:26:19;;;;;;;7.90;4.80;;;;;;;23.92;50.47;98949.21;106863;1279;141381;-71
2022/09/14 10:28:52;;;;;;;5.50;4.50;;;;;;;24.33;50.27;98943.57;107029;1280;112928;-69
2022/09/14 10:31:31;;;;;;;10.30;4.80;;;;;;;24.56;49.26;98941.36;105974;1279;109069;-68
2022/09/14 10:34:12;;;;;;;9.10;4.80;;;;;;;24.71;49.21;98938.52;105425;1279;138587;-69
2022/09/14 10:36:53;;;;;;;7.90;5.10;;;;;;;24.75;48.52;98941.02;106951;1279;95816;-70
2022/09/14 10:39:31;;;;;;;7.50;4.30;;;;;;;24.72;48.58;98948.63;106948;1279;138655;-71
2022/09/14 10:42:13;;;;;;;8.10;3.10;;;;;;;24.64;47.54;98944.92;107007;1281;112663;-71
2022/09/14 10:45:01;;;;;;;6.80;3.10;;;;;;;24.35;46.43;98946.67;106861;1281;138541;-71
2022/09/14 10:47:49;;;;;;;7.40;2.90;;;;;;;24.32;46.48;98946.48;106869;1278;109042;-72
2022/09/14 10:50:33;;;;;;;8.20;3.00;;;;;;;24.44;46.80;98939.70;105390;1280;137820;-70
2022/09/14 10:53:17;;;;;;;5.10;2.60;;;;;;;24.51;45.88;98945.31;105479;1280;97881;-72
2022/09/14 10:55:59;;;;;;;4.50;2.50;;;;;;;24.46;45.95;98941.97;105152;1281;138550;-71
2022/09/14 10:58:50;;;;;;;3.90;2.30;;;;;;;24.44;45.99;98941.95;107083;1279;108950;-72
2022/09/14 11:01:34;;;;;;;3.90;2.10;;;;;;;24.63;46.50;98942.48;106958;1279;107795;-72
2022/09/14 11:04:23;;;;;;;6.10;2.60;;;;;;;24.93;46.96;98941.98;106835;1279;137628;-72
2022/09/14 11:07:06;;;;;;;8.00;3.70;;;;;;;25.23;46.68;98938.39;107101;1279;97517;-71
2022/09/14 11:09:47;;;;;;;5.20;3.00;;;;;;;25.16;45.73;98946.84;105413;1279;138127;-70
2022/09/14 11:12:29;;;;;;;7.00;3.10;;;;;;;25.22;45.66;98943.13;105493;1281;109036;-69
2022/09/14 11:15:08;;;;;;;5.20;3.20;;;;;;;25.36;45.68;98941.80;105471;1279;138063;-69
2022/09/14 11:17:52;;;;;;;7.70;2.80;;;;;;;25.36;45.04;98942.09;105612;1279;97823;-71
2022/09/14 11:20:33;;;;;;;4.60;2.50;;;;;;;25.04;44.87;98946.23;105382;1281;138205;-69
2022/09/14 11:23:21;;;;;;;6.50;2.80;;;;;;;24.92;45.30;98945.98;107022;1279;112557;-70
2022/09/14 11:25:57;;;;;;;3.90;2.40;;;;;;;24.91;45.37;98942.16;106943;1279;137915;-71
2022/09/14 11:28:34;;;;;;;4.60;2.50;;;;;;;24.65;44.84;98949.55;107022;1279;108899;-71
2022/09/14 11:31:11;;;;;;;5.40;2.50;;;;;;;24.34;44.92;98943.44;106768;1279;98258;-72
2022/09/14 11:33:49;;;;;;;4.20;2.70;;;;;;;24.02;44.59;98939.94;105381;1279;137677;-71
2022/09/14 11:36:26;;;;;;;8.10;2.80;;;;;;;23.75;44.78;98941.98;105528;1279;111509;-69
2022/09/14 11:39:03;;;;;;;7.50;2.50;;;;;;;23.51;45.19;98943.16;105381;1279;137968;-70
2022/09/14 11:41:43;;;;;;;8.70;2.50;;;;;;;23.43;45.46;98935.78;105529;1279;107839;-69
2022/09/14 11:44:21;;;;;;;4.60;1.90;;;;;;;23.52;45.59;98930.81;105380;1279;138076;-70
2022/09/14 11:47:00;;;;;;;5.90;2.20;;;;;;;23.57;45.44;98937.21;105486;1279;98509;-71
2022/09/14 11:49:45;;;;;;;4.70;2.30;;;;;;;23.55;44.99;98933.69;105770;1279;112445;-71